sensor_id;sensor_type;location;lat;lon;timestamp;P1;durP1;ratioP1;P2;durP2;ratioP2
5953;SDS011;3002;42.642;24.812;2022-08-18T00:01:22;17.90;;;5.10;;
5953;SDS011;3002;42.642;24.812;2022-08-18T00:03:48;17.13;;;5.33;;
5953;SDS011;3002;42.642;24.812;2022-08-18T00:06:14;30.77;;;6.57;;
5953;SDS011;3002;42.642;24.812;2022-08-18T00:08:40;16.10;;;4.83;;
5953;SDS011;3002;42.642;24.812;2022-08-18T00:11:05;17.50;;;5.03;;
5953;SDS011;3002;42.642;24.812;2022-08-18T00:13:30;22.33;;;5.60;;
5953;SDS011;3002;42.642;24.812;2022-08-18T00:15:56;22.43;;;5.87;;
5953;SDS011;3002;42.642;24.812;2022-08-18T00:18:21;20.40;;;5.37;;
5953;SDS011;3002;42.642;24.812;2022-08-18T00:20:46;18.90;;;4.80;;
5953;SDS011;3002;42.642;24.812;2022-08-18T00:23:12;16.17;;;5.37;;
5953;SDS011;3002;42.642;24.812;2022-08-18T00:25:38;24.00;;;4.73;;
5953;SDS011;3002;42.642;24.812;2022-08-18T00:28:03;17.20;;;5.20;;
5953;SDS011;3002;42.642;24.812;2022-08-18T00:30:29;19.77;;;5.40;;
5953;SDS011;3002;42.642;24.812;2022-08-18T00:32:55;33.20;;;7.37;;
5953;SDS011;3002;42.642;24.812;2022-08-18T00:35:25;23.43;;;5.80;;
5953;SDS011;3002;42.642;24.812;2022-08-18T00:37:51;20.77;;;5.70;;
5953;SDS011;3002;42.642;24.812;2022-08-18T00:40:18;21.33;;;6.17;;
5953;SDS011;3002;42.642;24.812;2022-08-18T00:42:48;16.93;;;5.50;;
5953;SDS011;3002;42.642;24.812;2022-08-18T00:45:17;18.63;;;5.40;;
5953;SDS011;3002;42.642;24.812;2022-08-18T00:47:43;21.17;;;6.47;;
5953;SDS011;3002;42.642;24.812;2022-08-18T00:50:14;19.93;;;6.20;;
5953;SDS011;3002;42.642;24.812;2022-08-18T00:52:41;23.67;;;5.63;;
5953;SDS011;3002;42.642;24.812;2022-08-18T00:55:07;14.77;;;4.60;;
5953;SDS011;3002;42.642;24.812;2022-08-18T00:57:32;18.10;;;5.90;;
5953;SDS011;3002;42.642;24.812;2022-08-18T00:59:59;18.33;;;6.00;;
5953;SDS011;3002;42.642;24.812;2022-08-18T01:02:36;24.37;;;6.40;;
5953;SDS011;3002;42.642;24.812;2022-08-18T01:05:08;26.53;;;6.30;;
5953;SDS011;3002;42.642;24.812;2022-08-18T01:07:39;20.37;;;5.97;;
5953;SDS011;3002;42.642;24.812;2022-08-18T01:10:08;25.37;;;6.00;;
5953;SDS011;3002;42.642;24.812;2022-08-18T01:12:38;20.77;;;6.00;;
5953;SDS011;3002;42.642;24.812;2022-08-18T01:15:04;18.40;;;5.47;;
5953;SDS011;3002;42.642;24.812;2022-08-18T01:17:30;21.77;;;6.80;;
5953;SDS011;3002;42.642;24.812;2022-08-18T01:20:14;24.83;;;7.27;;
5953;SDS011;3002;42.642;24.812;2022-08-18T01:23:01;18.63;;;6.30;;
5953;SDS011;3002;42.642;24.812;2022-08-18T01:25:28;18.03;;;5.90;;
5953;SDS011;3002;42.642;24.812;2022-08-18T01:28:13;31.53;;;6.60;;
5953;SDS011;3002;42.642;24.812;2022-08-18T01:30:45;18.43;;;5.50;;
5953;SDS011;3002;42.642;24.812;2022-08-18T01:33:12;37.93;;;7.10;;
5953;SDS011;3002;42.642;24.812;2022-08-18T01:35:38;21.87;;;5.00;;
5953;SDS011;3002;42.642;24.812;2022-08-18T01:38:04;22.23;;;5.93;;
5953;SDS011;3002;42.642;24.812;2022-08-18T01:40:29;22.43;;;6.10;;
5953;SDS011;3002;42.642;24.812;2022-08-18T01:42:56;18.37;;;5.47;;
5953;SDS011;3002;42.642;24.812;2022-08-18T01:45:21;18.60;;;5.10;;
5953;SDS011;3002;42.642;24.812;2022-08-18T01:47:47;22.23;;;5.27;;
5953;SDS011;3002;42.642;24.812;2022-08-18T01:50:12;20.00;;;5.57;;
5953;SDS011;3002;42.642;24.812;2022-08-18T01:52:38;15.13;;;5.50;;
5953;SDS011;3002;42.642;24.812;2022-08-18T01:55:03;27.73;;;6.13;;
5953;SDS011;3002;42.642;24.812;2022-08-18T01:57:29;18.10;;;5.63;;
5953;SDS011;3002;42.642;24.812;2022-08-18T01:59:54;28.90;;;6.83;;
5953;SDS011;3002;42.642;24.812;2022-08-18T02:02:24;19.07;;;5.30;;
5953;SDS011;3002;42.642;24.812;2022-08-18T02:04:54;23.83;;;6.20;;
5953;SDS011;3002;42.642;24.812;2022-08-18T02:07:20;18.87;;;5.40;;
5953;SDS011;3002;42.642;24.812;2022-08-18T02:09:46;22.83;;;6.13;;
5953;SDS011;3002;42.642;24.812;2022-08-18T02:12:12;22.83;;;6.00;;
5953;SDS011;3002;42.642;24.812;2022-08-18T02:14:37;18.90;;;6.23;;
5953;SDS011;3002;42.642;24.812;2022-08-18T02:17:03;19.07;;;5.83;;
5953;SDS011;3002;42.642;24.812;2022-08-18T02:19:33;22.30;;;5.63;;
5953;SDS011;3002;42.642;24.812;2022-08-18T02:21:58;18.60;;;6.00;;
5953;SDS011;3002;42.642;24.812;2022-08-18T02:24:24;18.90;;;6.50;;
5953;SDS011;3002;42.642;24.812;2022-08-18T02:26:49;25.73;;;7.10;;
5953;SDS011;3002;42.642;24.812;2022-08-18T02:29:15;21.50;;;6.53;;
5953;SDS011;3002;42.642;24.812;2022-08-18T02:31:40;16.10;;;5.13;;
5953;SDS011;3002;42.642;24.812;2022-08-18T02:34:05;19.17;;;5.20;;
5953;SDS011;3002;42.642;24.812;2022-08-18T02:36:31;20.63;;;4.97;;
5953;SDS011;3002;42.642;24.812;2022-08-18T02:38:56;21.70;;;4.77;;
5953;SDS011;3002;42.642;24.812;2022-08-18T02:41:21;19.70;;;5.57;;
5953;SDS011;3002;42.642;24.812;2022-08-18T02:43:47;17.77;;;5.50;;
5953;SDS011;3002;42.642;24.812;2022-08-18T02:46:13;15.63;;;4.43;;
5953;SDS011;3002;42.642;24.812;2022-08-18T02:48:39;33.70;;;5.70;;
5953;SDS011;3002;42.642;24.812;2022-08-18T02:51:08;18.07;;;5.80;;
5953;SDS011;3002;42.642;24.812;2022-08-18T02:53:35;27.43;;;6.67;;
5953;SDS011;3002;42.642;24.812;2022-08-18T02:56:09;14.63;;;5.20;;
5953;SDS011;3002;42.642;24.812;2022-08-18T02:58:51;35.90;;;7.43;;
5953;SDS011;3002;42.642;24.812;2022-08-18T03:01:20;23.43;;;6.20;;
5953;SDS011;3002;42.642;24.812;2022-08-18T03:03:46;19.27;;;5.30;;
5953;SDS011;3002;42.642;24.812;2022-08-18T03:06:11;17.33;;;5.20;;
5953;SDS011;3002;42.642;24.812;2022-08-18T03:08:37;30.83;;;6.90;;
5953;SDS011;3002;42.642;24.812;2022-08-18T03:11:02;23.80;;;5.53;;
5953;SDS011;3002;42.642;24.812;2022-08-18T03:13:27;21.07;;;5.37;;
5953;SDS011;3002;42.642;24.812;2022-08-18T03:15:54;16.13;;;5.40;;
5953;SDS011;3002;42.642;24.812;2022-08-18T03:18:19;18.87;;;5.87;;
5953;SDS011;3002;42.642;24.812;2022-08-18T03:20:46;22.30;;;5.47;;
5953;SDS011;3002;42.642;24.812;2022-08-18T03:23:14;45.27;;;7.60;;
5953;SDS011;3002;42.642;24.812;2022-08-18T03:25:44;21.97;;;5.80;;
5953;SDS011;3002;42.642;24.812;2022-08-18T03:28:11;18.77;;;5.40;;
5953;SDS011;3002;42.642;24.812;2022-08-18T03:30:36;19.67;;;5.57;;
5953;SDS011;3002;42.642;24.812;2022-08-18T03:33:02;26.87;;;5.80;;
5953;SDS011;3002;42.642;24.812;2022-08-18T03:35:27;26.90;;;6.47;;
5953;SDS011;3002;42.642;24.812;2022-08-18T03:37:53;16.10;;;5.40;;
5953;SDS011;3002;42.642;24.812;2022-08-18T03:40:19;29.03;;;7.00;;
5953;SDS011;3002;42.642;24.812;2022-08-18T03:42:45;20.73;;;6.20;;
5953;SDS011;3002;42.642;24.812;2022-08-18T03:45:10;26.70;;;5.80;;
5953;SDS011;3002;42.642;24.812;2022-08-18T03:47:35;17.40;;;5.73;;
5953;SDS011;3002;42.642;24.812;2022-08-18T03:50:01;24.87;;;6.20;;
5953;SDS011;3002;42.642;24.812;2022-08-18T03:52:26;22.90;;;5.73;;
5953;SDS011;3002;42.642;24.812;2022-08-18T03:54:51;17.07;;;5.33;;
5953;SDS011;3002;42.642;24.812;2022-08-18T03:57:18;24.13;;;6.40;;
5953;SDS011;3002;42.642;24.812;2022-08-18T03:59:43;19.10;;;5.70;;
5953;SDS011;3002;42.642;24.812;2022-08-18T04:02:09;19.53;;;6.37;;
5953;SDS011;3002;42.642;24.812;2022-08-18T04:04:34;35.20;;;7.67;;
5953;SDS011;3002;42.642;24.812;2022-08-18T04:07:04;31.50;;;7.87;;
5953;SDS011;3002;42.642;24.812;2022-08-18T04:09:30;26.97;;;6.63;;
5953;SDS011;3002;42.642;24.812;2022-08-18T04:11:56;19.93;;;5.67;;
5953;SDS011;3002;42.642;24.812;2022-08-18T04:14:22;22.43;;;6.90;;
5953;SDS011;3002;42.642;24.812;2022-08-18T04:16:48;30.80;;;6.77;;
5953;SDS011;3002;42.642;24.812;2022-08-18T04:19:14;29.73;;;7.80;;
5953;SDS011;3002;42.642;24.812;2022-08-18T04:21:42;25.13;;;7.27;;
5953;SDS011;3002;42.642;24.812;2022-08-18T04:24:08;24.03;;;6.70;;
5953;SDS011;3002;42.642;24.812;2022-08-18T04:26:35;29.40;;;7.27;;
5953;SDS011;3002;42.642;24.812;2022-08-18T04:29:01;28.63;;;7.47;;
5953;SDS011;3002;42.642;24.812;2022-08-18T04:31:28;33.23;;;6.40;;
5953;SDS011;3002;42.642;24.812;2022-08-18T04:33:54;27.60;;;8.30;;
5953;SDS011;3002;42.642;24.812;2022-08-18T04:36:20;14.30;;;5.97;;
5953;SDS011;3002;42.642;24.812;2022-08-18T04:38:46;27.97;;;6.10;;
5953;SDS011;3002;42.642;24.812;2022-08-18T04:41:12;28.87;;;6.30;;
5953;SDS011;3002;42.642;24.812;2022-08-18T04:43:38;18.10;;;6.13;;
5953;SDS011;3002;42.642;24.812;2022-08-18T04:46:04;30.87;;;5.80;;
5953;SDS011;3002;42.642;24.812;2022-08-18T04:48:31;27.90;;;6.37;;
5953;SDS011;3002;42.642;24.812;2022-08-18T04:51:02;30.27;;;6.33;;
5953;SDS011;3002;42.642;24.812;2022-08-18T04:53:27;24.47;;;6.10;;
5953;SDS011;3002;42.642;24.812;2022-08-18T04:56:22;21.70;;;6.20;;
5953;SDS011;3002;42.642;24.812;2022-08-18T04:59:06;20.57;;;6.20;;
5953;SDS011;3002;42.642;24.812;2022-08-18T05:01:38;37.30;;;6.50;;
5953;SDS011;3002;42.642;24.812;2022-08-18T05:04:04;37.97;;;7.10;;
5953;SDS011;3002;42.642;24.812;2022-08-18T05:06:30;23.00;;;5.47;;
5953;SDS011;3002;42.642;24.812;2022-08-18T05:08:57;18.70;;;5.50;;
5953;SDS011;3002;42.642;24.812;2022-08-18T05:11:24;26.57;;;6.10;;
5953;SDS011;3002;42.642;24.812;2022-08-18T05:13:50;20.80;;;4.63;;
5953;SDS011;3002;42.642;24.812;2022-08-18T05:16:19;16.83;;;4.90;;
5953;SDS011;3002;42.642;24.812;2022-08-18T05:18:45;19.13;;;4.97;;
5953;SDS011;3002;42.642;24.812;2022-08-18T05:21:10;24.50;;;5.53;;
5953;SDS011;3002;42.642;24.812;2022-08-18T05:23:43;18.27;;;5.33;;
5953;SDS011;3002;42.642;24.812;2022-08-18T05:26:10;19.37;;;5.17;;
5953;SDS011;3002;42.642;24.812;2022-08-18T05:28:35;30.70;;;6.80;;
5953;SDS011;3002;42.642;24.812;2022-08-18T05:31:07;17.60;;;6.60;;
5953;SDS011;3002;42.642;24.812;2022-08-18T05:33:33;19.53;;;5.73;;
5953;SDS011;3002;42.642;24.812;2022-08-18T05:36:00;22.20;;;5.43;;
5953;SDS011;3002;42.642;24.812;2022-08-18T05:38:34;27.60;;;5.80;;
5953;SDS011;3002;42.642;24.812;2022-08-18T05:41:10;19.03;;;5.40;;
5953;SDS011;3002;42.642;24.812;2022-08-18T05:43:37;20.07;;;4.80;;
5953;SDS011;3002;42.642;24.812;2022-08-18T05:46:04;20.20;;;4.80;;
5953;SDS011;3002;42.642;24.812;2022-08-18T05:48:30;23.80;;;5.07;;
5953;SDS011;3002;42.642;24.812;2022-08-18T05:50:55;33.30;;;6.80;;
5953;SDS011;3002;42.642;24.812;2022-08-18T05:53:22;29.57;;;6.17;;
5953;SDS011;3002;42.642;24.812;2022-08-18T05:56:07;18.43;;;4.97;;
5953;SDS011;3002;42.642;24.812;2022-08-18T05:58:52;19.60;;;4.87;;
5953;SDS011;3002;42.642;24.812;2022-08-18T06:01:30;22.03;;;5.60;;
5953;SDS011;3002;42.642;24.812;2022-08-18T06:03:59;15.73;;;4.93;;
5953;SDS011;3002;42.642;24.812;2022-08-18T06:06:26;13.57;;;5.10;;
5953;SDS011;3002;42.642;24.812;2022-08-18T06:09:06;17.37;;;4.97;;
5953;SDS011;3002;42.642;24.812;2022-08-18T06:11:34;18.67;;;5.53;;
5953;SDS011;3002;42.642;24.812;2022-08-18T06:14:00;17.70;;;5.10;;
5953;SDS011;3002;42.642;24.812;2022-08-18T06:36:58;13.60;;;4.13;;
5953;SDS011;3002;42.642;24.812;2022-08-18T06:39:28;30.47;;;5.60;;
5953;SDS011;3002;42.642;24.812;2022-08-18T06:41:55;12.63;;;4.20;;
5953;SDS011;3002;42.642;24.812;2022-08-18T06:45:22;10.77;;;3.20;;
5953;SDS011;3002;42.642;24.812;2022-08-18T06:52:28;12.20;;;2.97;;
5953;SDS011;3002;42.642;24.812;2022-08-18T06:54:58;22.80;;;5.37;;
5953;SDS011;3002;42.642;24.812;2022-08-18T06:57:32;11.33;;;3.33;;
5953;SDS011;3002;42.642;24.812;2022-08-18T07:04:59;16.90;;;4.10;;
5953;SDS011;3002;42.642;24.812;2022-08-18T07:07:29;13.03;;;3.97;;
5953;SDS011;3002;42.642;24.812;2022-08-18T07:09:55;18.60;;;4.40;;
5953;SDS011;3002;42.642;24.812;2022-08-18T07:12:27;14.37;;;3.90;;
5953;SDS011;3002;42.642;24.812;2022-08-18T07:15:00;14.30;;;3.83;;
5953;SDS011;3002;42.642;24.812;2022-08-18T07:17:30;10.43;;;3.73;;
5953;SDS011;3002;42.642;24.812;2022-08-18T07:20:02;19.83;;;4.10;;
5953;SDS011;3002;42.642;24.812;2022-08-18T07:22:28;15.77;;;5.27;;
5953;SDS011;3002;42.642;24.812;2022-08-18T07:24:55;18.27;;;4.80;;
5953;SDS011;3002;42.642;24.812;2022-08-18T07:32:57;14.90;;;4.50;;
5953;SDS011;3002;42.642;24.812;2022-08-18T07:35:27;10.57;;;3.50;;
5953;SDS011;3002;42.642;24.812;2022-08-18T07:38:09;17.43;;;4.50;;
5953;SDS011;3002;42.642;24.812;2022-08-18T07:40:52;23.17;;;4.93;;
5953;SDS011;3002;42.642;24.812;2022-08-18T07:43:21;14.20;;;4.50;;
5953;SDS011;3002;42.642;24.812;2022-08-18T07:45:51;12.37;;;4.10;;
5953;SDS011;3002;42.642;24.812;2022-08-18T07:48:20;12.27;;;4.10;;
5953;SDS011;3002;42.642;24.812;2022-08-18T07:51:09;11.23;;;3.50;;
5953;SDS011;3002;42.642;24.812;2022-08-18T07:53:56;15.90;;;4.50;;
5953;SDS011;3002;42.642;24.812;2022-08-18T08:04:29;11.37;;;3.37;;
5953;SDS011;3002;42.642;24.812;2022-08-18T08:07:01;13.27;;;4.57;;
5953;SDS011;3002;42.642;24.812;2022-08-18T08:13:01;9.43;;;3.00;;
5953;SDS011;3002;42.642;24.812;2022-08-18T08:17:48;12.47;;;3.57;;
5953;SDS011;3002;42.642;24.812;2022-08-18T08:20:26;12.83;;;3.70;;
5953;SDS011;3002;42.642;24.812;2022-08-18T08:25:28;16.40;;;5.00;;
5953;SDS011;3002;42.642;24.812;2022-08-18T08:28:14;21.87;;;5.13;;
5953;SDS011;3002;42.642;24.812;2022-08-18T08:30:47;21.40;;;5.17;;
5953;SDS011;3002;42.642;24.812;2022-08-18T08:33:25;24.93;;;5.17;;
5953;SDS011;3002;42.642;24.812;2022-08-18T08:36:03;8.43;;;3.00;;
5953;SDS011;3002;42.642;24.812;2022-08-18T08:41:02;17.20;;;4.90;;
5953;SDS011;3002;42.642;24.812;2022-08-18T08:43:30;15.63;;;4.00;;
5953;SDS011;3002;42.642;24.812;2022-08-18T08:46:02;14.33;;;3.93;;
5953;SDS011;3002;42.642;24.812;2022-08-18T08:48:30;14.00;;;4.70;;
5953;SDS011;3002;42.642;24.812;2022-08-18T08:53:32;25.40;;;5.60;;
5953;SDS011;3002;42.642;24.812;2022-08-18T08:56:00;13.40;;;4.10;;
5953;SDS011;3002;42.642;24.812;2022-08-18T09:01:04;15.87;;;4.20;;
5953;SDS011;3002;42.642;24.812;2022-08-18T09:03:42;11.30;;;3.30;;
5953;SDS011;3002;42.642;24.812;2022-08-18T09:08:48;8.30;;;3.43;;
5953;SDS011;3002;42.642;24.812;2022-08-18T09:11:29;18.40;;;3.80;;
5953;SDS011;3002;42.642;24.812;2022-08-18T09:21:58;13.23;;;5.00;;
5953;SDS011;3002;42.642;24.812;2022-08-18T09:24:37;12.93;;;4.50;;
5953;SDS011;3002;42.642;24.812;2022-08-18T09:37:46;19.53;;;4.70;;
5953;SDS011;3002;42.642;24.812;2022-08-18T09:40:33;10.83;;;4.17;;
5953;SDS011;3002;42.642;24.812;2022-08-18T09:45:58;13.27;;;5.00;;
5953;SDS011;3002;42.642;24.812;2022-08-18T09:48:57;41.17;;;7.93;;
5953;SDS011;3002;42.642;24.812;2022-08-18T09:51:20;18.70;;;4.70;;
5953;SDS011;3002;42.642;24.812;2022-08-18T09:59:02;9.70;;;4.57;;
5953;SDS011;3002;42.642;24.812;2022-08-18T10:06:38;16.67;;;5.00;;
5953;SDS011;3002;42.642;24.812;2022-08-18T10:09:14;17.37;;;4.93;;
5953;SDS011;3002;42.642;24.812;2022-08-18T10:14:33;9.13;;;4.90;;
5953;SDS011;3002;42.642;24.812;2022-08-18T10:19:47;13.87;;;5.30;;
5953;SDS011;3002;42.642;24.812;2022-08-18T10:22:13;11.40;;;5.40;;
5953;SDS011;3002;42.642;24.812;2022-08-18T10:24:58;19.43;;;5.20;;
5953;SDS011;3002;42.642;24.812;2022-08-18T10:29:57;12.70;;;4.60;;
5953;SDS011;3002;42.642;24.812;2022-08-18T10:32:24;19.03;;;4.30;;
5953;SDS011;3002;42.642;24.812;2022-08-18T10:35:00;14.77;;;5.50;;
5953;SDS011;3002;42.642;24.812;2022-08-18T10:37:38;16.70;;;4.90;;
5953;SDS011;3002;42.642;24.812;2022-08-18T10:42:36;26.77;;;6.33;;
5953;SDS011;3002;42.642;24.812;2022-08-18T10:45:07;15.20;;;4.93;;
5953;SDS011;3002;42.642;24.812;2022-08-18T10:47:34;18.37;;;4.77;;
5953;SDS011;3002;42.642;24.812;2022-08-18T10:50:04;17.67;;;5.40;;
5953;SDS011;3002;42.642;24.812;2022-08-18T11:00:22;15.10;;;5.53;;
5953;SDS011;3002;42.642;24.812;2022-08-18T11:05:24;14.27;;;4.50;;
5953;SDS011;3002;42.642;24.812;2022-08-18T11:07:53;12.50;;;4.40;;
5953;SDS011;3002;42.642;24.812;2022-08-18T11:10:22;18.73;;;5.23;;
5953;SDS011;3002;42.642;24.812;2022-08-18T11:20:29;22.43;;;6.00;;
5953;SDS011;3002;42.642;24.812;2022-08-18T11:22:59;11.27;;;4.40;;
5953;SDS011;3002;42.642;24.812;2022-08-18T11:25:26;21.33;;;5.90;;
5953;SDS011;3002;42.642;24.812;2022-08-18T11:27:52;20.57;;;5.07;;
5953;SDS011;3002;42.642;24.812;2022-08-18T11:30:17;18.93;;;5.00;;
5953;SDS011;3002;42.642;24.812;2022-08-18T11:32:43;19.00;;;5.80;;
5953;SDS011;3002;42.642;24.812;2022-08-18T11:42:37;22.57;;;5.80;;
5953;SDS011;3002;42.642;24.812;2022-08-18T11:47:28;11.70;;;4.23;;
5953;SDS011;3002;42.642;24.812;2022-08-18T11:50:04;13.83;;;5.43;;
5953;SDS011;3002;42.642;24.812;2022-08-18T11:52:32;12.70;;;4.87;;
5953;SDS011;3002;42.642;24.812;2022-08-18T11:55:16;13.80;;;5.20;;
5953;SDS011;3002;42.642;24.812;2022-08-18T11:57:53;15.53;;;5.20;;
5953;SDS011;3002;42.642;24.812;2022-08-18T12:03:04;12.20;;;4.90;;
5953;SDS011;3002;42.642;24.812;2022-08-18T12:05:39;15.57;;;5.80;;
5953;SDS011;3002;42.642;24.812;2022-08-18T12:08:14;21.30;;;6.83;;
5953;SDS011;3002;42.642;24.812;2022-08-18T12:10:40;20.30;;;7.40;;
5953;SDS011;3002;42.642;24.812;2022-08-18T12:13:05;15.73;;;5.83;;
5953;SDS011;3002;42.642;24.812;2022-08-18T12:15:32;15.70;;;6.37;;
5953;SDS011;3002;42.642;24.812;2022-08-18T12:17:57;16.20;;;6.10;;
5953;SDS011;3002;42.642;24.812;2022-08-18T12:20:22;18.03;;;6.10;;
5953;SDS011;3002;42.642;24.812;2022-08-18T12:22:48;19.13;;;6.90;;
5953;SDS011;3002;42.642;24.812;2022-08-18T12:25:14;15.90;;;6.40;;
5953;SDS011;3002;42.642;24.812;2022-08-18T12:27:40;21.50;;;7.07;;
5953;SDS011;3002;42.642;24.812;2022-08-18T12:30:07;12.93;;;5.63;;
5953;SDS011;3002;42.642;24.812;2022-08-18T12:32:33;18.33;;;6.67;;
5953;SDS011;3002;42.642;24.812;2022-08-18T12:34:59;14.90;;;6.23;;
5953;SDS011;3002;42.642;24.812;2022-08-18T12:37:26;17.07;;;6.60;;
5953;SDS011;3002;42.642;24.812;2022-08-18T12:39:52;14.60;;;5.73;;
5953;SDS011;3002;42.642;24.812;2022-08-18T12:42:18;15.97;;;6.07;;
5953;SDS011;3002;42.642;24.812;2022-08-18T12:44:44;18.77;;;6.10;;
5953;SDS011;3002;42.642;24.812;2022-08-18T12:47:12;17.20;;;6.47;;
5953;SDS011;3002;42.642;24.812;2022-08-18T12:49:37;12.63;;;5.70;;
5953;SDS011;3002;42.642;24.812;2022-08-18T12:52:03;17.53;;;6.20;;
5953;SDS011;3002;42.642;24.812;2022-08-18T12:54:29;15.23;;;6.30;;
5953;SDS011;3002;42.642;24.812;2022-08-18T12:56:55;31.40;;;7.07;;
5953;SDS011;3002;42.642;24.812;2022-08-18T12:59:21;24.03;;;7.83;;
5953;SDS011;3002;42.642;24.812;2022-08-18T13:01:47;15.80;;;6.67;;
5953;SDS011;3002;42.642;24.812;2022-08-18T13:04:12;20.13;;;8.07;;
5953;SDS011;3002;42.642;24.812;2022-08-18T13:06:38;17.67;;;6.57;;
5953;SDS011;3002;42.642;24.812;2022-08-18T13:09:05;15.17;;;7.07;;
5953;SDS011;3002;42.642;24.812;2022-08-18T13:11:31;21.70;;;7.70;;
5953;SDS011;3002;42.642;24.812;2022-08-18T13:13:56;32.03;;;6.87;;
5953;SDS011;3002;42.642;24.812;2022-08-18T13:16:22;13.10;;;5.53;;
5953;SDS011;3002;42.642;24.812;2022-08-18T13:18:47;22.57;;;6.50;;
5953;SDS011;3002;42.642;24.812;2022-08-18T13:21:14;18.37;;;6.47;;
5953;SDS011;3002;42.642;24.812;2022-08-18T13:23:39;25.43;;;6.97;;
5953;SDS011;3002;42.642;24.812;2022-08-18T13:26:07;23.00;;;7.43;;
5953;SDS011;3002;42.642;24.812;2022-08-18T13:28:33;22.43;;;6.33;;
5953;SDS011;3002;42.642;24.812;2022-08-18T13:30:59;19.73;;;5.73;;
5953;SDS011;3002;42.642;24.812;2022-08-18T13:33:25;17.93;;;6.30;;
5953;SDS011;3002;42.642;24.812;2022-08-18T13:35:51;29.30;;;7.50;;
5953;SDS011;3002;42.642;24.812;2022-08-18T13:38:16;25.07;;;6.87;;
5953;SDS011;3002;42.642;24.812;2022-08-18T13:40:47;19.40;;;6.60;;
5953;SDS011;3002;42.642;24.812;2022-08-18T13:43:13;30.43;;;7.40;;
5953;SDS011;3002;42.642;24.812;2022-08-18T13:45:40;16.57;;;5.27;;
5953;SDS011;3002;42.642;24.812;2022-08-18T13:48:06;26.57;;;6.87;;
5953;SDS011;3002;42.642;24.812;2022-08-18T13:50:31;17.00;;;6.30;;
5953;SDS011;3002;42.642;24.812;2022-08-18T13:52:57;26.43;;;7.60;;
5953;SDS011;3002;42.642;24.812;2022-08-18T13:55:24;28.30;;;8.30;;
5953;SDS011;3002;42.642;24.812;2022-08-18T13:57:50;23.17;;;6.90;;
5953;SDS011;3002;42.642;24.812;2022-08-18T14:00:19;18.83;;;6.10;;
5953;SDS011;3002;42.642;24.812;2022-08-18T14:02:46;17.47;;;6.20;;
5953;SDS011;3002;42.642;24.812;2022-08-18T14:05:12;23.63;;;5.80;;
5953;SDS011;3002;42.642;24.812;2022-08-18T14:07:38;20.27;;;6.73;;
5953;SDS011;3002;42.642;24.812;2022-08-18T14:10:04;19.13;;;5.17;;
5953;SDS011;3002;42.642;24.812;2022-08-18T14:12:31;24.30;;;6.53;;
5953;SDS011;3002;42.642;24.812;2022-08-18T14:14:59;21.73;;;5.83;;
5953;SDS011;3002;42.642;24.812;2022-08-18T14:17:24;34.67;;;7.40;;
5953;SDS011;3002;42.642;24.812;2022-08-18T14:19:50;49.13;;;21.20;;
5953;SDS011;3002;42.642;24.812;2022-08-18T14:22:34;21.27;;;5.80;;
5953;SDS011;3002;42.642;24.812;2022-08-18T14:25:18;18.83;;;6.00;;
5953;SDS011;3002;42.642;24.812;2022-08-18T14:28:02;22.17;;;6.30;;
5953;SDS011;3002;42.642;24.812;2022-08-18T14:30:27;12.33;;;4.87;;
5953;SDS011;3002;42.642;24.812;2022-08-18T14:32:53;16.77;;;5.20;;
5953;SDS011;3002;42.642;24.812;2022-08-18T14:35:19;11.53;;;4.43;;
5953;SDS011;3002;42.642;24.812;2022-08-18T14:37:46;12.27;;;4.70;;
5953;SDS011;3002;42.642;24.812;2022-08-18T14:40:11;16.80;;;4.23;;
5953;SDS011;3002;42.642;24.812;2022-08-18T14:42:37;17.33;;;4.50;;
5953;SDS011;3002;42.642;24.812;2022-08-18T14:45:03;14.73;;;4.57;;
5953;SDS011;3002;42.642;24.812;2022-08-18T14:47:30;19.20;;;4.50;;
5953;SDS011;3002;42.642;24.812;2022-08-18T14:49:56;18.33;;;5.13;;
5953;SDS011;3002;42.642;24.812;2022-08-18T14:52:22;13.53;;;4.90;;
5953;SDS011;3002;42.642;24.812;2022-08-18T14:54:48;28.80;;;5.90;;
5953;SDS011;3002;42.642;24.812;2022-08-18T14:57:13;13.13;;;4.70;;
5953;SDS011;3002;42.642;24.812;2022-08-18T14:59:39;38.97;;;8.30;;
5953;SDS011;3002;42.642;24.812;2022-08-18T15:02:05;31.03;;;7.00;;
5953;SDS011;3002;42.642;24.812;2022-08-18T15:04:31;29.10;;;6.90;;
5953;SDS011;3002;42.642;24.812;2022-08-18T15:06:57;18.30;;;4.70;;
5953;SDS011;3002;42.642;24.812;2022-08-18T15:09:23;23.73;;;6.10;;
5953;SDS011;3002;42.642;24.812;2022-08-18T15:11:48;25.60;;;6.07;;
5953;SDS011;3002;42.642;24.812;2022-08-18T15:14:15;27.93;;;5.77;;
5953;SDS011;3002;42.642;24.812;2022-08-18T15:16:41;22.27;;;5.40;;
5953;SDS011;3002;42.642;24.812;2022-08-18T15:19:06;19.70;;;5.60;;
5953;SDS011;3002;42.642;24.812;2022-08-18T15:21:32;28.37;;;6.17;;
5953;SDS011;3002;42.642;24.812;2022-08-18T15:24:16;16.80;;;5.43;;
5953;SDS011;3002;42.642;24.812;2022-08-18T15:26:59;21.37;;;5.83;;
5953;SDS011;3002;42.642;24.812;2022-08-18T15:29:27;26.30;;;5.40;;
5953;SDS011;3002;42.642;24.812;2022-08-18T15:31:53;18.17;;;4.90;;
5953;SDS011;3002;42.642;24.812;2022-08-18T15:34:18;22.63;;;5.40;;
5953;SDS011;3002;42.642;24.812;2022-08-18T15:36:44;14.50;;;5.10;;
5953;SDS011;3002;42.642;24.812;2022-08-18T15:39:10;16.97;;;5.47;;
5953;SDS011;3002;42.642;24.812;2022-08-18T15:41:37;22.93;;;6.13;;
5953;SDS011;3002;42.642;24.812;2022-08-18T15:44:04;18.40;;;5.27;;
5953;SDS011;3002;42.642;24.812;2022-08-18T15:46:31;35.87;;;7.57;;
5953;SDS011;3002;42.642;24.812;2022-08-18T15:48:57;13.00;;;4.60;;
5953;SDS011;3002;42.642;24.812;2022-08-18T15:51:22;15.90;;;5.03;;
5953;SDS011;3002;42.642;24.812;2022-08-18T15:53:47;22.10;;;5.23;;
5953;SDS011;3002;42.642;24.812;2022-08-18T15:56:15;17.63;;;5.03;;
5953;SDS011;3002;42.642;24.812;2022-08-18T15:58:42;17.57;;;5.30;;
5953;SDS011;3002;42.642;24.812;2022-08-18T16:01:10;14.73;;;5.33;;
5953;SDS011;3002;42.642;24.812;2022-08-18T16:03:35;19.83;;;5.53;;
5953;SDS011;3002;42.642;24.812;2022-08-18T16:06:02;18.00;;;5.17;;
5953;SDS011;3002;42.642;24.812;2022-08-18T16:08:27;28.87;;;6.60;;
5953;SDS011;3002;42.642;24.812;2022-08-18T16:10:53;22.83;;;5.57;;
5953;SDS011;3002;42.642;24.812;2022-08-18T16:13:19;23.77;;;6.40;;
5953;SDS011;3002;42.642;24.812;2022-08-18T16:15:45;17.87;;;5.10;;
5953;SDS011;3002;42.642;24.812;2022-08-18T16:18:12;12.60;;;4.67;;
5953;SDS011;3002;42.642;24.812;2022-08-18T16:20:38;23.57;;;5.80;;
5953;SDS011;3002;42.642;24.812;2022-08-18T16:23:04;15.37;;;4.97;;
5953;SDS011;3002;42.642;24.812;2022-08-18T16:25:29;17.80;;;5.40;;
5953;SDS011;3002;42.642;24.812;2022-08-18T16:27:57;28.57;;;6.83;;
5953;SDS011;3002;42.642;24.812;2022-08-18T16:30:23;13.60;;;4.80;;
5953;SDS011;3002;42.642;24.812;2022-08-18T16:32:48;18.57;;;5.77;;
5953;SDS011;3002;42.642;24.812;2022-08-18T16:35:14;32.47;;;7.20;;
5953;SDS011;3002;42.642;24.812;2022-08-18T16:37:40;19.30;;;5.50;;
5953;SDS011;3002;42.642;24.812;2022-08-18T16:40:06;27.57;;;7.30;;
5953;SDS011;3002;42.642;24.812;2022-08-18T16:42:32;19.53;;;4.93;;
5953;SDS011;3002;42.642;24.812;2022-08-18T16:45:00;30.73;;;5.70;;
5953;SDS011;3002;42.642;24.812;2022-08-18T16:47:26;26.97;;;6.20;;
5953;SDS011;3002;42.642;24.812;2022-08-18T16:49:52;26.03;;;7.37;;
5953;SDS011;3002;42.642;24.812;2022-08-18T16:52:17;29.53;;;5.40;;
5953;SDS011;3002;42.642;24.812;2022-08-18T16:54:43;28.60;;;5.33;;
5953;SDS011;3002;42.642;24.812;2022-08-18T16:57:09;20.33;;;6.80;;
5953;SDS011;3002;42.642;24.812;2022-08-18T16:59:35;30.10;;;9.07;;
5953;SDS011;3002;42.642;24.812;2022-08-18T17:02:19;33.87;;;12.60;;
5953;SDS011;3002;42.642;24.812;2022-08-18T17:05:03;38.63;;;11.67;;
5953;SDS011;3002;42.642;24.812;2022-08-18T17:07:29;50.07;;;21.13;;
5953;SDS011;3002;42.642;24.812;2022-08-18T17:09:55;52.73;;;20.83;;
5953;SDS011;3002;42.642;24.812;2022-08-18T17:12:21;41.80;;;16.57;;